Time;durP1;ratioP1;P1;durP2;ratioP2;P2;SDS_P1;SDS_P2;PMS_P1;PMS_P2;Temp;Humidity;BMP_temperature;BMP_pressure;BME280_temperature;BME280_humidity;BME280_pressure;Samples;Min_cycle;Max_cycle;Signal;HPM_P1;HPM_P2
2022/05/31 00:01:27;;;;;;;4.03;0.97;;;;;;;;;;5046966;28;20294;-58
2022/05/31 00:03:54;;;;;;;1.10;1.00;;;;;;;;;;5047213;28;20627;-58
2022/05/31 00:06:21;;;;;;;0.87;0.87;;;;;;;;;;5046994;28;20224;-58
2022/05/31 00:08:49;;;;;;;0.60;0.60;;;;;;;;;;5046217;28;20215;-58
2022/05/31 00:11:16;;;;;;;0.97;0.97;;;;;;;;;;5047051;28;20205;-57
2022/05/31 00:13:43;;;;;;;1.50;0.70;;;;;;;;;;5047325;28;20629;-58
2022/05/31 00:16:11;;;;;;;0.90;0.90;;;;;;;;;;5043027;28;20208;-58
2022/05/31 00:18:38;;;;;;;0.60;0.60;;;;;;;;;;5047898;28;20290;-58
2022/05/31 00:21:05;;;;;;;1.80;0.87;;;;;;;;;;5045801;28;20207;-58
2022/05/31 00:23:33;;;;;;;1.13;1.13;;;;;;;;;;5043754;28;20200;-58
2022/05/31 00:26:02;;;;;;;1.00;0.93;;;;;;;;;;5047738;28;20309;-58
2022/05/31 00:28:29;;;;;;;0.90;0.90;;;;;;;;;;5046291;28;20281;-57
2022/05/31 00:30:56;;;;;;;0.90;0.90;;;;;;;;;;5046867;28;20206;-58
2022/05/31 00:33:23;;;;;;;5.23;0.93;;;;;;;;;;5047401;28;20215;-58
2022/05/31 00:35:51;;;;;;;0.73;0.73;;;;;;;;;;5042921;28;20568;-58
2022/05/31 00:38:18;;;;;;;2.07;1.10;;;;;;;;;;5044937;28;20200;-58
2022/05/31 00:40:46;;;;;;;0.90;0.90;;;;;;;;;;5043557;28;20204;-57
2022/05/31 00:43:16;;;;;;;1.90;0.90;;;;;;;;;;5045602;28;20630;-58
2022/05/31 00:45:45;;;;;;;0.60;0.60;;;;;;;;;;5046153;28;20693;-58
2022/05/31 00:48:13;;;;;;;2.40;0.80;;;;;;;;;;5048417;28;20627;-58
2022/05/31 00:50:43;;;;;;;0.93;0.93;;;;;;;;;;5047863;28;20215;-58
2022/05/31 00:53:12;;;;;;;0.97;0.93;;;;;;;;;;5049071;28;20572;-58
2022/05/31 00:55:41;;;;;;;2.10;0.90;;;;;;;;;;5047993;28;20212;-58
2022/05/31 00:58:17;;;;;;;0.70;0.70;;;;;;;;;;5049120;28;20207;-57
2022/05/31 01:00:46;;;;;;;0.70;0.70;;;;;;;;;;5045684;28;20612;-58
2022/05/31 01:03:15;;;;;;;0.77;0.77;;;;;;;;;;5048406;28;20968;-58
2022/05/31 01:05:42;;;;;;;0.63;0.63;;;;;;;;;;5048011;28;20973;-58
2022/05/31 01:08:10;;;;;;;0.83;0.70;;;;;;;;;;5048557;28;20235;-58
2022/05/31 01:10:37;;;;;;;0.97;0.87;;;;;;;;;;5047532;28;20205;-58
2022/05/31 01:13:04;;;;;;;0.70;0.70;;;;;;;;;;5048227;28;20218;-58
2022/05/31 01:15:31;;;;;;;1.20;1.20;;;;;;;;;;5047127;28;20257;-57
2022/05/31 01:18:00;;;;;;;1.27;0.80;;;;;;;;;;5048491;28;20195;-58
2022/05/31 01:20:28;;;;;;;0.70;0.70;;;;;;;;;;5049238;28;20204;-58
2022/05/31 01:22:56;;;;;;;1.00;0.90;;;;;;;;;;5049189;28;20630;-57
2022/05/31 01:25:30;;;;;;;0.80;0.80;;;;;;;;;;5048596;28;20337;-58
2022/05/31 01:28:01;;;;;;;0.70;0.70;;;;;;;;;;5049313;28;20228;-58
2022/05/31 01:30:30;;;;;;;1.13;0.90;;;;;;;;;;5048685;28;20211;-58
2022/05/31 01:33:00;;;;;;;0.70;0.70;;;;;;;;;;5030533;28;20213;-58
2022/05/31 01:35:30;;;;;;;1.77;0.67;;;;;;;;;;5048996;28;20216;-58
2022/05/31 01:38:00;;;;;;;0.73;0.73;;;;;;;;;;5049061;28;20709;-58
2022/05/31 01:40:30;;;;;;;0.70;0.70;;;;;;;;;;5048957;28;20245;-58
2022/05/31 01:42:57;;;;;;;1.13;1.13;;;;;;;;;;5048709;28;20678;-58
2022/05/31 01:45:26;;;;;;;0.67;0.67;;;;;;;;;;5048356;28;20203;-58
2022/05/31 01:47:55;;;;;;;1.00;1.00;;;;;;;;;;5048593;28;20627;-58
2022/05/31 01:50:22;;;;;;;3.73;1.03;;;;;;;;;;5048340;28;20211;-58
2022/05/31 01:52:51;;;;;;;2.00;0.93;;;;;;;;;;5048469;28;20211;-58
2022/05/31 01:55:18;;;;;;;0.80;0.80;;;;;;;;;;5048680;28;20265;-56
2022/05/31 01:57:48;;;;;;;1.10;1.10;;;;;;;;;;5048694;28;20203;-57
2022/05/31 02:00:16;;;;;;;0.80;0.80;;;;;;;;;;5048909;28;20285;-56
2022/05/31 02:02:47;;;;;;;0.90;0.90;;;;;;;;;;5048546;28;20207;-57
2022/05/31 02:05:14;;;;;;;2.90;1.10;;;;;;;;;;5048744;28;20603;-56
2022/05/31 02:07:41;;;;;;;0.70;0.70;;;;;;;;;;5045086;28;20231;-56
2022/05/31 02:10:10;;;;;;;0.80;0.80;;;;;;;;;;5048800;28;20196;-56
2022/05/31 02:12:37;;;;;;;0.90;0.90;;;;;;;;;;5048554;28;20736;-56
2022/05/31 02:15:04;;;;;;;1.27;0.80;;;;;;;;;;5048766;28;20582;-57
2022/05/31 02:17:31;;;;;;;0.67;0.67;;;;;;;;;;5048866;28;20199;-56
2022/05/31 02:19:58;;;;;;;0.70;0.70;;;;;;;;;;5048686;28;20206;-57
2022/05/31 02:22:27;;;;;;;0.80;0.80;;;;;;;;;;5048241;28;20670;-56
2022/05/31 02:24:54;;;;;;;2.10;0.80;;;;;;;;;;5048016;28;20261;-57
2022/05/31 02:27:22;;;;;;;1.10;1.10;;;;;;;;;;5045929;28;20289;-57
2022/05/31 02:29:49;;;;;;;1.87;0.90;;;;;;;;;;5042587;28;20210;-57
2022/05/31 02:32:17;;;;;;;0.60;0.60;;;;;;;;;;5048281;28;20204;-57
2022/05/31 02:34:45;;;;;;;2.00;0.80;;;;;;;;;;5038514;28;20215;-57
2022/05/31 02:37:12;;;;;;;0.80;0.80;;;;;;;;;;5036030;28;20218;-57
2022/05/31 02:39:39;;;;;;;0.87;0.67;;;;;;;;;;5042353;28;20656;-57
2022/05/31 02:42:07;;;;;;;0.87;0.83;;;;;;;;;;5047748;28;20357;-57
2022/05/31 02:44:36;;;;;;;2.30;0.73;;;;;;;;;;5045821;28;20662;-57
2022/05/31 02:47:03;;;;;;;1.40;1.00;;;;;;;;;;5047526;28;20694;-56
2022/05/31 02:49:30;;;;;;;1.33;0.80;;;;;;;;;;5046760;28;20251;-57
2022/05/31 02:51:59;;;;;;;1.47;0.77;;;;;;;;;;5047078;28;20203;-56
2022/05/31 02:54:26;;;;;;;0.70;0.70;;;;;;;;;;5046770;28;20659;-57
2022/05/31 02:56:53;;;;;;;0.80;0.80;;;;;;;;;;5046504;28;20207;-57
2022/05/31 02:59:20;;;;;;;0.80;0.80;;;;;;;;;;5046507;28;20696;-57
2022/05/31 03:01:49;;;;;;;1.97;1.07;;;;;;;;;;5041554;28;20662;-57
2022/05/31 03:04:17;;;;;;;0.83;0.80;;;;;;;;;;5042247;28;20211;-57
2022/05/31 03:06:44;;;;;;;0.87;0.87;;;;;;;;;;5047624;28;20255;-57
2022/05/31 03:09:12;;;;;;;1.40;0.80;;;;;;;;;;5045920;28;20217;-57
2022/05/31 03:11:41;;;;;;;1.43;1.10;;;;;;;;;;5037589;28;20487;-58
2022/05/31 03:14:09;;;;;;;0.73;0.73;;;;;;;;;;5039672;28;20311;-57
2022/05/31 03:16:38;;;;;;;1.60;0.70;;;;;;;;;;5044114;28;20208;-57
2022/05/31 03:19:09;;;;;;;0.67;0.67;;;;;;;;;;5044272;28;20207;-57
2022/05/31 03:21:37;;;;;;;0.80;0.63;;;;;;;;;;5046637;28;20288;-56
2022/05/31 03:24:08;;;;;;;1.40;0.83;;;;;;;;;;5044519;28;20330;-56
2022/05/31 03:26:36;;;;;;;0.63;0.63;;;;;;;;;;5040792;28;20239;-57
2022/05/31 03:29:04;;;;;;;0.97;0.87;;;;;;;;;;5051205;28;20203;-57
2022/05/31 03:31:32;;;;;;;0.80;0.80;;;;;;;;;;5051102;28;20211;-57
2022/05/31 03:33:59;;;;;;;1.00;1.00;;;;;;;;;;5051004;28;20211;-57
2022/05/31 03:36:27;;;;;;;0.80;0.80;;;;;;;;;;5051202;28;20716;-57
2022/05/31 03:38:54;;;;;;;1.80;0.90;;;;;;;;;;5050829;28;20698;-57
2022/05/31 03:41:21;;;;;;;1.10;1.10;;;;;;;;;;5051122;28;20211;-57
2022/05/31 03:43:48;;;;;;;0.87;0.87;;;;;;;;;;5049232;28;20200;-56
2022/05/31 03:46:16;;;;;;;1.83;1.00;;;;;;;;;;5051499;28;20208;-57
2022/05/31 03:48:43;;;;;;;0.83;0.83;;;;;;;;;;5051075;28;20228;-57
2022/05/31 03:51:11;;;;;;;0.80;0.80;;;;;;;;;;5051615;28;20215;-57
2022/05/31 03:53:40;;;;;;;1.33;0.93;;;;;;;;;;5051169;28;20204;-57
2022/05/31 03:56:08;;;;;;;1.13;1.10;;;;;;;;;;5051580;28;20210;-57
2022/05/31 03:58:35;;;;;;;1.00;1.00;;;;;;;;;;5049128;28;20222;-57
2022/05/31 04:01:03;;;;;;;1.00;1.00;;;;;;;;;;5050569;28;20206;-57
2022/05/31 04:03:30;;;;;;;0.80;0.80;;;;;;;;;;5050593;28;20234;-57
2022/05/31 04:05:57;;;;;;;1.87;1.10;;;;;;;;;;5050561;28;20199;-57
2022/05/31 04:08:24;;;;;;;1.30;1.00;;;;;;;;;;5050398;28;20243;-57
2022/05/31 04:10:53;;;;;;;1.30;1.07;;;;;;;;;;5049976;28;20255;-57
2022/05/31 04:13:20;;;;;;;0.77;0.77;;;;;;;;;;5050262;28;20208;-61
2022/05/31 04:15:47;;;;;;;1.47;1.17;;;;;;;;;;5050908;28;20215;-57
2022/05/31 04:18:15;;;;;;;2.37;0.80;;;;;;;;;;5050410;28;20253;-57
2022/05/31 04:20:42;;;;;;;0.83;0.83;;;;;;;;;;5050307;28;20211;-57
2022/05/31 04:26:04;;;;;;;1.10;1.03;;;;;;;;;;5030949;28;20250;-58
2022/05/31 04:28:31;;;;;;;0.87;0.87;;;;;;;;;;5050474;28;20226;-56
2022/05/31 04:30:58;;;;;;;0.90;0.90;;;;;;;;;;5050446;28;20212;-57
2022/05/31 04:33:25;;;;;;;0.90;0.90;;;;;;;;;;5049742;28;20219;-57
2022/05/31 04:35:59;;;;;;;0.83;0.83;;;;;;;;;;5049609;28;20238;-55
2022/05/31 04:38:26;;;;;;;0.80;0.80;;;;;;;;;;5050467;28;20210;-55
2022/05/31 04:40:53;;;;;;;1.93;1.30;;;;;;;;;;5049824;28;20211;-56
2022/05/31 04:43:21;;;;;;;1.37;0.90;;;;;;;;;;5046563;28;20211;-55
2022/05/31 04:45:48;;;;;;;1.13;1.03;;;;;;;;;;5050056;28;20265;-57
2022/05/31 04:48:15;;;;;;;0.70;0.70;;;;;;;;;;5050128;28;20231;-57
2022/05/31 04:50:42;;;;;;;0.90;0.90;;;;;;;;;;5049457;28;20632;-57
2022/05/31 04:53:09;;;;;;;1.00;1.00;;;;;;;;;;5050061;28;20600;-56
2022/05/31 04:55:36;;;;;;;0.70;0.70;;;;;;;;;;5049755;28;20215;-57
2022/05/31 04:58:04;;;;;;;1.30;1.00;;;;;;;;;;5049544;28;20214;-57
2022/05/31 05:00:32;;;;;;;2.10;0.90;;;;;;;;;;5049981;28;20203;-56
2022/05/31 05:02:59;;;;;;;0.73;0.73;;;;;;;;;;5049869;28;20207;-56
2022/05/31 05:05:26;;;;;;;1.73;0.70;;;;;;;;;;5049467;28;20212;-56
2022/05/31 05:07:53;;;;;;;1.07;1.07;;;;;;;;;;5045911;28;20246;-56
2022/05/31 05:10:20;;;;;;;0.77;0.77;;;;;;;;;;5047870;28;20207;-57
2022/05/31 05:12:47;;;;;;;2.40;0.70;;;;;;;;;;5041934;28;20220;-56
2022/05/31 05:15:14;;;;;;;0.87;0.87;;;;;;;;;;5049468;28;20595;-56
2022/05/31 05:17:43;;;;;;;0.67;0.67;;;;;;;;;;5049412;28;20211;-56
2022/05/31 05:20:10;;;;;;;0.80;0.80;;;;;;;;;;5049255;28;20290;-57
2022/05/31 05:22:37;;;;;;;2.90;0.60;;;;;;;;;;5049559;28;20207;-57
2022/05/31 05:25:06;;;;;;;1.27;0.90;;;;;;;;;;5048937;28;20586;-57
2022/05/31 05:27:33;;;;;;;0.90;0.90;;;;;;;;;;5049397;28;20243;-56
2022/05/31 05:32:46;;;;;;;1.60;1.00;;;;;;;;;;5049392;28;20206;-57
2022/05/31 05:35:13;;;;;;;2.33;1.03;;;;;;;;;;5046695;28;20559;-56
2022/05/31 05:37:40;;;;;;;0.87;0.87;;;;;;;;;;5048411;28;20196;-57
2022/05/31 05:40:08;;;;;;;1.10;1.00;;;;;;;;;;5048381;28;20344;-57
2022/05/31 05:42:35;;;;;;;1.00;1.00;;;;;;;;;;5048263;28;20595;-57
2022/05/31 05:45:03;;;;;;;2.03;1.30;;;;;;;;;;5048488;28;20204;-61
2022/05/31 05:47:30;;;;;;;0.90;0.90;;;;;;;;;;5047704;28;20261;-59
2022/05/31 05:49:58;;;;;;;0.73;0.73;;;;;;;;;;5047104;28;20222;-59
2022/05/31 05:52:25;;;;;;;0.80;0.80;;;;;;;;;;5048726;28;20211;-58
2022/05/31 05:54:52;;;;;;;0.80;0.80;;;;;;;;;;5045488;28;20197;-58
2022/05/31 05:57:19;;;;;;;2.33;0.87;;;;;;;;;;5033823;28;20215;-59
2022/05/31 05:59:46;;;;;;;2.30;1.07;;;;;;;;;;5032885;28;20205;-58
2022/05/31 06:02:15;;;;;;;0.80;0.80;;;;;;;;;;5028479;28;20223;-59
2022/05/31 06:04:45;;;;;;;0.97;0.80;;;;;;;;;;5028783;28;20216;-59
2022/05/31 06:07:15;;;;;;;1.00;1.00;;;;;;;;;;5033163;28;20204;-58
2022/05/31 06:09:44;;;;;;;0.63;0.63;;;;;;;;;;5037343;28;20203;-59
2022/05/31 06:12:13;;;;;;;4.27;0.83;;;;;;;;;;5039094;28;20218;-58
2022/05/31 06:14:42;;;;;;;0.90;0.90;;;;;;;;;;5039027;28;20199;-58
2022/05/31 06:17:12;;;;;;;0.87;0.87;;;;;;;;;;5037757;28;20220;-58
2022/05/31 06:19:40;;;;;;;0.60;0.60;;;;;;;;;;5036792;28;20196;-58
2022/05/31 06:22:07;;;;;;;3.43;0.90;;;;;;;;;;5038185;28;20290;-58
2022/05/31 06:24:37;;;;;;;0.80;0.80;;;;;;;;;;5038554;28;20204;-58
2022/05/31 06:27:05;;;;;;;0.97;0.93;;;;;;;;;;5037009;28;20623;-58
2022/05/31 06:29:32;;;;;;;0.70;0.70;;;;;;;;;;5037599;28;20280;-57
2022/05/31 06:31:59;;;;;;;0.97;0.83;;;;;;;;;;5038640;28;20569;-59
2022/05/31 06:34:26;;;;;;;0.70;0.70;;;;;;;;;;5037262;28;20635;-58
2022/05/31 06:37:02;;;;;;;0.60;0.60;;;;;;;;;;5039160;28;20204;-58
2022/05/31 06:39:29;;;;;;;2.87;0.93;;;;;;;;;;5037828;28;20203;-58
2022/05/31 06:41:57;;;;;;;0.53;0.53;;;;;;;;;;5037227;28;20204;-59
2022/05/31 06:44:24;;;;;;;0.67;0.67;;;;;;;;;;5037020;28;20439;-59
2022/05/31 06:46:51;;;;;;;0.60;0.60;;;;;;;;;;5037398;28;20230;-58
2022/05/31 06:49:18;;;;;;;2.00;0.90;;;;;;;;;;5043015;28;20223;-59
2022/05/31 06:57:16;;;;;;;0.80;0.80;;;;;;;;;;5042754;28;20243;-59
2022/05/31 06:59:43;;;;;;;1.47;0.70;;;;;;;;;;5040903;28;20208;-59
2022/05/31 07:02:10;;;;;;;0.70;0.70;;;;;;;;;;5041133;28;20211;-59
2022/05/31 07:04:38;;;;;;;1.50;0.77;;;;;;;;;;5042353;28;20211;-59
2022/05/31 07:07:05;;;;;;;1.08;0.82;;;;;;;;;;5043259;28;20201;-58
2022/05/31 07:09:33;;;;;;;0.80;0.80;;;;;;;;;;5031814;28;20228;-59
2022/05/31 07:12:00;;;;;;;3.97;0.57;;;;;;;;;;5037315;28;20570;-59
2022/05/31 07:14:29;;;;;;;0.93;0.90;;;;;;;;;;5051350;28;20204;-59
2022/05/31 07:16:56;;;;;;;0.85;0.50;;;;;;;;;;5050591;28;20650;-58
2022/05/31 07:19:23;;;;;;;0.68;0.68;;;;;;;;;;5050941;28;20207;-59
2022/05/31 07:21:50;;;;;;;1.50;0.70;;;;;;;;;;5051408;28;20207;-59
2022/05/31 07:24:17;;;;;;;0.70;0.70;;;;;;;;;;5051077;28;20553;-58
2022/05/31 07:26:44;;;;;;;0.70;0.70;;;;;;;;;;5049240;28;20231;-59
2022/05/31 07:29:12;;;;;;;1.58;0.90;;;;;;;;;;5047099;28;20228;-59
2022/05/31 07:31:41;;;;;;;0.95;0.95;;;;;;;;;;5046389;28;20235;-59
2022/05/31 07:34:10;;;;;;;1.23;1.00;;;;;;;;;;5050880;28;20203;-59
2022/05/31 07:36:38;;;;;;;1.08;0.98;;;;;;;;;;5050674;28;20235;-59
2022/05/31 07:39:05;;;;;;;1.35;0.75;;;;;;;;;;5050891;28;20227;-59
2022/05/31 07:41:32;;;;;;;0.80;0.80;;;;;;;;;;5051141;28;20631;-59
2022/05/31 07:44:00;;;;;;;0.70;0.70;;;;;;;;;;5051036;28;20556;-59
2022/05/31 07:46:27;;;;;;;0.75;0.75;;;;;;;;;;5050943;28;20299;-58
2022/05/31 07:48:56;;;;;;;0.90;0.90;;;;;;;;;;5050192;28;20323;-58
2022/05/31 07:51:23;;;;;;;0.90;0.90;;;;;;;;;;5050849;28;20870;-58
2022/05/31 07:53:51;;;;;;;1.70;0.80;;;;;;;;;;5050502;28;20211;-58
2022/05/31 07:56:18;;;;;;;0.90;0.90;;;;;;;;;;5050898;28;20205;-58
2022/05/31 07:58:46;;;;;;;0.88;0.88;;;;;;;;;;5050283;28;20203;-58
2022/05/31 08:01:14;;;;;;;0.70;0.70;;;;;;;;;;5046860;28;20687;-58
2022/05/31 08:03:41;;;;;;;0.90;0.90;;;;;;;;;;5049931;28;20216;-58
2022/05/31 08:06:11;;;;;;;0.80;0.77;;;;;;;;;;5050230;28;20208;-58
2022/05/31 08:08:38;;;;;;;0.93;0.93;;;;;;;;;;5050198;28;20250;-58
2022/05/31 08:11:06;;;;;;;1.00;0.88;;;;;;;;;;5050326;28;20212;-59
2022/05/31 08:13:33;;;;;;;0.82;0.82;;;;;;;;;;5050681;28;20226;-58
2022/05/31 08:16:00;;;;;;;0.90;0.90;;;;;;;;;;5050359;28;20211;-63
2022/05/31 08:18:27;;;;;;;0.80;0.80;;;;;;;;;;5050364;28;20214;-59
2022/05/31 08:20:58;;;;;;;1.27;1.02;;;;;;;;;;5049921;28;20207;-59
2022/05/31 08:23:27;;;;;;;2.25;0.80;;;;;;;;;;5048372;28;20200;-58
2022/05/31 08:25:55;;;;;;;0.60;0.60;;;;;;;;;;5047659;28;20840;-58
2022/05/31 08:28:22;;;;;;;0.75;0.75;;;;;;;;;;5049687;28;20318;-58
2022/05/31 08:30:50;;;;;;;0.88;0.88;;;;;;;;;;5046824;28;20218;-58
2022/05/31 08:33:17;;;;;;;0.80;0.80;;;;;;;;;;5030204;28;20221;-58
2022/05/31 08:35:44;;;;;;;0.73;0.70;;;;;;;;;;5036383;28;20211;-59
2022/05/31 08:38:11;;;;;;;0.90;0.90;;;;;;;;;;5049436;28;20215;-58
2022/05/31 08:40:51;;;;;;;1.42;1.05;;;;;;;;;;5046213;28;20203;-58
2022/05/31 08:43:19;;;;;;;0.80;0.80;;;;;;;;;;5049357;28;20720;-58
2022/05/31 08:45:49;;;;;;;1.02;1.02;;;;;;;;;;5047775;28;20196;-58
2022/05/31 08:48:23;;;;;;;1.70;0.80;;;;;;;;;;5049127;28;20211;-58
2022/05/31 08:53:38;;;;;;;1.85;1.05;;;;;;;;;;5049248;28;20624;-58
2022/05/31 08:58:55;;;;;;;0.95;0.93;;;;;;;;;;5049083;28;20728;-58
2022/05/31 09:01:25;;;;;;;0.80;0.80;;;;;;;;;;5048532;28;20246;-58
2022/05/31 09:03:54;;;;;;;0.90;0.90;;;;;;;;;;5048781;28;20204;-58
2022/05/31 09:06:24;;;;;;;2.00;1.23;;;;;;;;;;5048694;28;20218;-59
2022/05/31 09:08:55;;;;;;;0.80;0.80;;;;;;;;;;5047921;28;20632;-58
2022/05/31 09:11:27;;;;;;;0.82;0.82;;;;;;;;;;5047607;28;20318;-58
2022/05/31 09:13:57;;;;;;;1.33;0.90;;;;;;;;;;5048082;28;20742;-59
2022/05/31 09:16:31;;;;;;;0.80;0.80;;;;;;;;;;5048181;28;20219;-60
2022/05/31 09:19:00;;;;;;;1.42;1.35;;;;;;;;;;5048209;28;20214;-60
2022/05/31 09:21:28;;;;;;;1.05;0.80;;;;;;;;;;5048056;28;20215;-60
2022/05/31 09:23:56;;;;;;;0.90;0.90;;;;;;;;;;5046990;28;20623;-61
2022/05/31 09:26:42;;;;;;;0.90;0.90;;;;;;;;;;5047359;28;20331;-61
2022/05/31 09:29:14;;;;;;;0.90;0.90;;;;;;;;;;5048289;28;20482;-60
2022/05/31 09:31:44;;;;;;;0.80;0.80;;;;;;;;;;5045923;28;20208;-60
2022/05/31 09:34:22;;;;;;;0.75;0.75;;;;;;;;;;5036213;28;20209;-61
2022/05/31 09:36:54;;;;;;;0.85;0.85;;;;;;;;;;5047739;28;20216;-60
2022/05/31 09:39:26;;;;;;;0.77;0.77;;;;;;;;;;5043692;28;20224;-60
2022/05/31 09:42:00;;;;;;;0.82;0.82;;;;;;;;;;5040297;28;20329;-59
2022/05/31 09:44:29;;;;;;;1.75;1.10;;;;;;;;;;5047496;28;20741;-60
2022/05/31 09:46:59;;;;;;;0.85;0.85;;;;;;;;;;5044167;28;20208;-58
2022/05/31 09:49:30;;;;;;;2.30;0.80;;;;;;;;;;5047229;28;20227;-60
2022/05/31 09:51:58;;;;;;;0.93;0.93;;;;;;;;;;5045031;28;20208;-59
2022/05/31 09:57:15;;;;;;;1.23;1.15;;;;;;;;;;5047160;28;20564;-60
2022/05/31 09:59:45;;;;;;;1.85;1.00;;;;;;;;;;5047158;28;20791;-59
2022/05/31 10:02:26;;;;;;;1.00;1.00;;;;;;;;;;5047241;28;20207;-59
2022/05/31 10:05:07;;;;;;;0.77;0.77;;;;;;;;;;5047409;28;20496;-59
2022/05/31 10:07:36;;;;;;;1.08;0.80;;;;;;;;;;5036232;28;20200;-59
2022/05/31 10:10:05;;;;;;;1.65;1.00;;;;;;;;;;5034760;28;20717;-59
2022/05/31 10:12:34;;;;;;;0.98;0.98;;;;;;;;;;5046582;28;20203;-59
2022/05/31 10:15:03;;;;;;;0.90;0.90;;;;;;;;;;5046189;28;20214;-57
2022/05/31 10:17:42;;;;;;;0.88;0.80;;;;;;;;;;5047286;28;20214;-57
2022/05/31 10:20:14;;;;;;;0.80;0.80;;;;;;;;;;5047636;28;20290;-58
2022/05/31 10:22:41;;;;;;;1.45;1.15;;;;;;;;;;5047122;28;20583;-57
2022/05/31 10:25:22;;;;;;;1.40;0.70;;;;;;;;;;5047076;28;20439;-57
2022/05/31 10:27:56;;;;;;;0.90;0.73;;;;;;;;;;5047461;28;20691;-57
2022/05/31 10:30:23;;;;;;;1.20;1.05;;;;;;;;;;5047421;28;20447;-57
2022/05/31 10:32:51;;;;;;;0.70;0.70;;;;;;;;;;5046827;28;20211;-57
2022/05/31 10:35:20;;;;;;;1.08;1.08;;;;;;;;;;5047644;28;20651;-58
2022/05/31 10:37:57;;;;;;;0.82;0.82;;;;;;;;;;5037908;28;20208;-56
2022/05/31 10:43:31;;;;;;;1.00;1.00;;;;;;;;;;5041483;28;20207;-58
2022/05/31 10:45:59;;;;;;;2.20;0.98;;;;;;;;;;5043479;28;20693;-57
2022/05/31 10:48:26;;;;;;;0.57;0.57;;;;;;;;;;5044247;28;20257;-57
2022/05/31 10:51:05;;;;;;;1.13;0.73;;;;;;;;;;5046081;28;20835;-57
2022/05/31 10:53:38;;;;;;;0.82;0.77;;;;;;;;;;5046681;28;20211;-57
2022/05/31 10:56:10;;;;;;;2.15;0.70;;;;;;;;;;5046724;28;20253;-57
2022/05/31 10:58:46;;;;;;;2.30;0.88;;;;;;;;;;5046837;28;20266;-58
2022/05/31 11:01:19;;;;;;;0.80;0.80;;;;;;;;;;5046777;28;20226;-56
2022/05/31 11:03:52;;;;;;;0.93;0.93;;;;;;;;;;5047272;28;20298;-57
2022/05/31 11:06:25;;;;;;;0.73;0.73;;;;;;;;;;5047012;28;20587;-58
2022/05/31 11:11:44;;;;;;;0.60;0.60;;;;;;;;;;5046116;28;20206;-58
2022/05/31 11:14:22;;;;;;;0.75;0.68;;;;;;;;;;5046473;28;20208;-59
2022/05/31 11:16:55;;;;;;;1.23;0.80;;;;;;;;;;5045904;28;20286;-59
2022/05/31 11:19:29;;;;;;;0.70;0.70;;;;;;;;;;5046750;28;20203;-57
2022/05/31 11:22:04;;;;;;;0.80;0.80;;;;;;;;;;5046699;28;20199;-58
2022/05/31 11:24:40;;;;;;;1.10;0.90;;;;;;;;;;5038080;28;20203;-57
2022/05/31 11:27:18;;;;;;;0.70;0.70;;;;;;;;;;5043134;28;20247;-57
2022/05/31 11:29:56;;;;;;;0.80;0.80;;;;;;;;;;5046969;28;20227;-57
2022/05/31 11:32:30;;;;;;;0.60;0.60;;;;;;;;;;5046696;28;20303;-62
2022/05/31 11:35:04;;;;;;;1.05;1.05;;;;;;;;;;5042693;28;20199;-57
2022/05/31 11:37:49;;;;;;;1.25;1.02;;;;;;;;;;5046093;28;20291;-57
2022/05/31 11:40:22;;;;;;;0.73;0.73;;;;;;;;;;5046102;28;20200;-57
2022/05/31 11:43:03;;;;;;;0.80;0.80;;;;;;;;;;5045633;28;20216;-57
2022/05/31 11:45:36;;;;;;;0.80;0.80;;;;;;;;;;5045593;28;20269;-58
2022/05/31 11:48:17;;;;;;;0.75;0.75;;;;;;;;;;5045046;28;20243;-58
2022/05/31 11:50:48;;;;;;;0.73;0.60;;;;;;;;;;5045727;28;20227;-58
2022/05/31 11:53:22;;;;;;;0.60;0.60;;;;;;;;;;5045923;28;20242;-58
2022/05/31 11:55:50;;;;;;;2.35;0.65;;;;;;;;;;5045993;28;20696;-58
2022/05/31 11:58:27;;;;;;;0.75;0.75;;;;;;;;;;5044911;28;20215;-58
2022/05/31 12:01:02;;;;;;;0.60;0.60;;;;;;;;;;5025901;28;20208;-58
2022/05/31 12:03:33;;;;;;;1.10;0.65;;;;;;;;;;5043160;28;20218;-58
2022/05/31 12:06:04;;;;;;;0.60;0.60;;;;;;;;;;5045736;28;20218;-58
2022/05/31 12:08:34;;;;;;;0.82;0.82;;;;;;;;;;5045975;28;20223;-57
2022/05/31 12:11:03;;;;;;;0.75;0.75;;;;;;;;;;5045395;28;20728;-58
2022/05/31 12:13:31;;;;;;;3.60;0.90;;;;;;;;;;5044834;28;20215;-58
2022/05/31 12:15:59;;;;;;;0.75;0.75;;;;;;;;;;5044770;28;20220;-58
2022/05/31 12:18:30;;;;;;;0.80;0.80;;;;;;;;;;5043097;28;20216;-57
2022/05/31 12:20:59;;;;;;;0.70;0.70;;;;;;;;;;5043064;28;20223;-58
2022/05/31 12:23:32;;;;;;;1.00;0.80;;;;;;;;;;5045036;28;20356;-58
2022/05/31 12:26:00;;;;;;;0.70;0.70;;;;;;;;;;5045501;28;20243;-58
2022/05/31 12:28:31;;;;;;;0.90;0.60;;;;;;;;;;5045318;28;20224;-58
2022/05/31 12:31:02;;;;;;;1.30;0.60;;;;;;;;;;5045406;28;20239;-58
2022/05/31 12:33:35;;;;;;;0.75;0.75;;;;;;;;;;5044844;28;20211;-59
2022/05/31 12:36:02;;;;;;;0.47;0.47;;;;;;;;;;5045458;28;20290;-58
2022/05/31 12:38:29;;;;;;;0.50;0.50;;;;;;;;;;5045510;28;20239;-58
2022/05/31 12:40:57;;;;;;;1.15;0.60;;;;;;;;;;5044884;28;20216;-58
2022/05/31 12:43:42;;;;;;;0.50;0.50;;;;;;;;;;5044981;28;20771;-58
2022/05/31 12:46:23;;;;;;;0.63;0.60;;;;;;;;;;5044976;28;20218;-58
2022/05/31 12:48:55;;;;;;;1.38;0.80;;;;;;;;;;5044771;28;20629;-58
2022/05/31 12:51:24;;;;;;;0.80;0.80;;;;;;;;;;5044909;28;20232;-58
2022/05/31 12:54:05;;;;;;;0.88;0.57;;;;;;;;;;5044929;28;20233;-58
2022/05/31 12:56:55;;;;;;;0.50;0.50;;;;;;;;;;5045222;28;20207;-56
2022/05/31 12:59:42;;;;;;;0.55;0.55;;;;;;;;;;5045284;28;20294;-56
2022/05/31 13:02:20;;;;;;;0.50;0.50;;;;;;;;;;5044000;28;20984;-56
2022/05/31 13:04:53;;;;;;;1.48;0.60;;;;;;;;;;5045450;28;20223;-57
2022/05/31 13:07:20;;;;;;;0.50;0.50;;;;;;;;;;5045252;28;20233;-58
2022/05/31 13:09:49;;;;;;;0.70;0.70;;;;;;;;;;5044540;28;20239;-57
2022/05/31 13:20:41;;;;;;;0.52;0.52;;;;;;;;;;5044603;28;20312;-57
2022/05/31 13:23:12;;;;;;;0.80;0.80;;;;;;;;;;5044255;28;20214;-57
2022/05/31 13:25:45;;;;;;;0.43;0.43;;;;;;;;;;5040890;28;20247;-58
2022/05/31 13:28:24;;;;;;;5.70;0.60;;;;;;;;;;5044951;28;20303;-56
2022/05/31 13:30:51;;;;;;;0.68;0.65;;;;;;;;;;5043526;28;20235;-57
2022/05/31 13:33:20;;;;;;;0.55;0.55;;;;;;;;;;5044470;28;20281;-57
2022/05/31 13:35:56;;;;;;;1.25;0.70;;;;;;;;;;5044147;28;20277;-56
2022/05/31 13:38:24;;;;;;;0.68;0.68;;;;;;;;;;5040507;28;20203;-56
2022/05/31 13:40:53;;;;;;;0.50;0.50;;;;;;;;;;5042633;28;20234;-62
2022/05/31 13:43:23;;;;;;;0.65;0.65;;;;;;;;;;5044263;28;20678;-59
2022/05/31 13:45:51;;;;;;;0.50;0.50;;;;;;;;;;5034478;28;20212;-60
2022/05/31 13:48:21;;;;;;;1.60;0.45;;;;;;;;;;5040555;28;20216;-56
2022/05/31 13:50:57;;;;;;;0.60;0.60;;;;;;;;;;5043709;28;20235;-56
2022/05/31 13:53:25;;;;;;;0.65;0.65;;;;;;;;;;5044361;28;20203;-56
2022/05/31 13:55:58;;;;;;;1.63;0.70;;;;;;;;;;5036034;28;20203;-57
2022/05/31 13:58:30;;;;;;;0.70;0.70;;;;;;;;;;5041878;28;20219;-56
2022/05/31 14:00:57;;;;;;;0.57;0.57;;;;;;;;;;5043966;28;20211;-56
2022/05/31 14:03:27;;;;;;;1.42;0.77;;;;;;;;;;5042709;28;20215;-63
2022/05/31 14:05:56;;;;;;;1.83;0.70;;;;;;;;;;5043378;28;20269;-60
2022/05/31 14:08:25;;;;;;;0.40;0.40;;;;;;;;;;5043596;28;20221;-58
2022/05/31 14:10:52;;;;;;;0.80;0.65;;;;;;;;;;5043336;28;20550;-58
2022/05/31 14:13:23;;;;;;;1.55;0.70;;;;;;;;;;5044065;28;20219;-58
2022/05/31 14:15:50;;;;;;;0.52;0.52;;;;;;;;;;5042961;28;20203;-58
2022/05/31 14:18:17;;;;;;;0.70;0.70;;;;;;;;;;5043362;28;20665;-58
2022/05/31 14:20:46;;;;;;;1.40;0.70;;;;;;;;;;5043754;28;20211;-58
2022/05/31 14:23:17;;;;;;;1.92;0.73;;;;;;;;;;5042588;28;20215;-58
2022/05/31 14:25:49;;;;;;;1.35;1.25;;;;;;;;;;5043927;28;20247;-58
2022/05/31 14:28:17;;;;;;;0.70;0.70;;;;;;;;;;5044334;28;20319;-58
2022/05/31 14:30:50;;;;;;;1.05;0.85;;;;;;;;;;5042717;28;20224;-58
2022/05/31 14:33:18;;;;;;;0.88;0.88;;;;;;;;;;5042917;28;20207;-58
2022/05/31 14:35:48;;;;;;;2.10;0.80;;;;;;;;;;5043712;28;20207;-58
2022/05/31 14:38:19;;;;;;;0.60;0.60;;;;;;;;;;5043237;28;20392;-58
2022/05/31 14:40:52;;;;;;;0.77;0.77;;;;;;;;;;5043293;28;20200;-59
2022/05/31 14:43:28;;;;;;;1.30;0.68;;;;;;;;;;5043171;28;20226;-58
2022/05/31 14:45:55;;;;;;;0.60;0.60;;;;;;;;;;5043209;28;20226;-58
2022/05/31 14:48:33;;;;;;;0.70;0.70;;;;;;;;;;5043213;28;20222;-58
2022/05/31 14:51:03;;;;;;;0.73;0.73;;;;;;;;;;5042224;28;20227;-58
2022/05/31 14:53:37;;;;;;;0.70;0.70;;;;;;;;;;5043466;28;20218;-57
2022/05/31 14:56:05;;;;;;;0.93;0.93;;;;;;;;;;5043803;28;20218;-58
2022/05/31 14:58:38;;;;;;;0.60;0.60;;;;;;;;;;5042842;28;20214;-58
2022/05/31 15:01:10;;;;;;;0.60;0.60;;;;;;;;;;5042720;28;20207;-59
2022/05/31 15:03:40;;;;;;;0.57;0.57;;;;;;;;;;5038846;28;20681;-59
2022/05/31 15:06:09;;;;;;;2.67;0.80;;;;;;;;;;5043922;28;20813;-59
2022/05/31 15:08:38;;;;;;;0.73;0.65;;;;;;;;;;5043810;28;21005;-59
2022/05/31 15:19:31;;;;;;;0.73;0.73;;;;;;;;;;5046086;28;20245;-55
2022/05/31 15:22:00;;;;;;;0.63;0.63;;;;;;;;;;5045864;28;20206;-55
2022/05/31 15:24:30;;;;;;;0.70;0.70;;;;;;;;;;5046862;28;20207;-55
2022/05/31 15:26:58;;;;;;;0.68;0.68;;;;;;;;;;5046712;28;20250;-55
2022/05/31 15:29:25;;;;;;;1.15;0.93;;;;;;;;;;5046988;28;20215;-55
2022/05/31 15:31:52;;;;;;;0.80;0.80;;;;;;;;;;5046940;28;20868;-55
2022/05/31 15:34:19;;;;;;;0.80;0.80;;;;;;;;;;5046496;28;20216;-55
2022/05/31 15:36:46;;;;;;;3.88;0.82;;;;;;;;;;5046289;28;20295;-55
2022/05/31 15:39:17;;;;;;;0.80;0.80;;;;;;;;;;5046776;28;20215;-55